createdAt,value
2023-09-06T00:03:12.804Z,19.70
2023-09-06T00:07:16.342Z,19.70
2023-09-06T00:11:20.413Z,19.60
2023-09-06T00:15:24.200Z,19.60
2023-09-06T00:19:28.054Z,19.50
2023-09-06T00:23:32.556Z,19.40
2023-09-06T00:27:36.104Z,19.40
2023-09-06T00:31:39.896Z,19.40
2023-09-06T00:35:46.516Z,19.50
2023-09-06T00:39:50.042Z,19.50
2023-09-06T00:43:53.908Z,19.60
2023-09-06T00:47:58.892Z,19.70
2023-09-06T00:52:02.551Z,19.80
2023-09-06T00:56:10.272Z,19.90
2023-09-06T01:00:19.277Z,19.90
2023-09-06T01:04:23.346Z,20.00
2023-09-06T01:08:34.439Z,20.10
2023-09-06T01:12:38.008Z,20.10
2023-09-06T01:16:47.464Z,20.20
2023-09-06T01:21:03.652Z,20.20
2023-09-06T01:25:13.303Z,20.20
2023-09-06T01:29:16.884Z,20.30
2023-09-06T01:33:20.933Z,20.20
2023-09-06T01:37:25.232Z,20.20
2023-09-06T01:41:29.196Z,20.20
2023-09-06T01:45:33.330Z,20.20
2023-09-06T01:49:36.984Z,20.20
2023-09-06T01:53:42.204Z,20.20
2023-09-06T01:57:46.023Z,20.20
2023-09-06T02:01:56.415Z,20.20
2023-09-06T02:06:00.813Z,20.20
2023-09-06T02:10:05.770Z,20.20
2023-09-06T02:14:09.350Z,20.10
2023-09-06T02:18:16.835Z,20.10
2023-09-06T02:22:20.472Z,20.10
2023-09-06T02:26:24.322Z,20.20
2023-09-06T02:30:28.310Z,20.30
2023-09-06T02:34:32.089Z,20.30
2023-09-06T02:38:35.842Z,20.40
2023-09-06T02:42:43.887Z,20.50
2023-09-06T02:46:47.592Z,20.60
2023-09-06T02:50:53.272Z,20.60
2023-09-06T02:55:01.164Z,20.50
2023-09-06T02:59:05.347Z,20.40
2023-09-06T03:03:09.322Z,20.40
2023-09-06T03:07:16.501Z,20.30
2023-09-06T03:11:20.119Z,20.30
2023-09-06T03:15:32.141Z,20.30
2023-09-06T03:19:42.388Z,20.30
2023-09-06T03:23:47.719Z,20.30
2023-09-06T03:27:52.725Z,20.30
2023-09-06T03:31:57.789Z,20.40
2023-09-06T03:36:01.467Z,20.40
2023-09-06T03:40:27.838Z,20.40
2023-09-06T03:44:33.195Z,20.30
2023-09-06T03:48:37.548Z,20.20
2023-09-06T03:52:43.006Z,20.20
2023-09-06T03:56:46.712Z,20.10
2023-09-06T04:00:53.184Z,20.10
2023-09-06T04:05:02.827Z,20.10
2023-09-06T04:09:09.319Z,20.10
2023-09-06T04:13:14.520Z,20.00
2023-09-06T04:17:19.171Z,20.00
2023-09-06T04:21:23.634Z,19.90
2023-09-06T04:25:28.298Z,19.90
2023-09-06T04:29:32.713Z,19.90
2023-09-06T04:33:37.248Z,20.00
2023-09-06T04:37:49.825Z,20.00
2023-09-06T04:38:49.635Z,14.00
2023-09-06T04:41:53.922Z,20.10
2023-09-06T04:42:54.303Z,14.10
2023-09-06T04:45:59.437Z,20.10
2023-09-06T04:46:58.446Z,14.20
2023-09-06T04:50:05.472Z,20.10
2023-09-06T04:51:02.821Z,14.40
2023-09-06T04:54:11.065Z,20.10
2023-09-06T04:55:11.802Z,14.60
2023-09-06T04:58:16.872Z,20.10
2023-09-06T04:59:16.383Z,14.90
2023-09-06T05:02:20.501Z,20.10
2023-09-06T05:03:20.495Z,15.20
2023-09-06T05:06:27.339Z,20.20
2023-09-06T05:07:31.776Z,15.30
2023-09-06T05:10:31.560Z,20.20
2023-09-06T05:11:39.334Z,15.40
2023-09-06T05:14:36.062Z,20.20
2023-09-06T05:15:44.022Z,15.70
2023-09-06T05:18:39.865Z,20.20
2023-09-06T05:19:54.610Z,16.00
2023-09-06T05:22:43.998Z,20.20
2023-09-06T05:23:58.658Z,16.30
2023-09-06T05:26:47.650Z,20.20
2023-09-06T05:28:03.959Z,16.50
2023-09-06T05:30:51.809Z,20.20
2023-09-06T05:32:08.445Z,17.20
2023-09-06T05:34:55.988Z,20.30
2023-09-06T05:36:13.079Z,18.50
2023-09-06T05:38:59.660Z,20.30
2023-09-06T05:40:18.358Z,19.60
2023-09-06T05:43:05.481Z,20.40
2023-09-06T05:44:22.512Z,20.60
2023-09-06T05:47:11.242Z,20.40
2023-09-06T05:48:26.601Z,21.40
2023-09-06T05:51:15.139Z,20.70
2023-09-06T05:52:31.239Z,22.00
2023-09-06T05:55:20.199Z,21.10
2023-09-06T05:56:37.695Z,22.60
2023-09-06T05:59:28.954Z,21.40
2023-09-06T06:00:43.301Z,23.20
2023-09-06T06:03:32.902Z,21.70
2023-09-06T06:04:47.270Z,23.90
2023-09-06T06:07:36.519Z,21.90
2023-09-06T06:08:51.244Z,24.60
2023-09-06T06:11:41.541Z,22.10
2023-09-06T06:12:56.212Z,25.30
2023-09-06T06:15:45.221Z,22.30
2023-09-06T06:17:00.776Z,25.90
2023-09-06T06:19:52.580Z,22.60
2023-09-06T06:21:05.613Z,26.30
2023-09-06T06:23:57.476Z,22.80
2023-09-06T06:25:11.987Z,26.60
2023-09-06T06:28:01.646Z,23.10
2023-09-06T06:29:16.012Z,27.00
2023-09-06T06:32:05.901Z,23.40
2023-09-06T06:33:20.249Z,27.20
2023-09-06T06:36:09.543Z,23.70
2023-09-06T06:37:24.202Z,27.20
2023-09-06T06:40:13.121Z,24.00
2023-09-06T06:41:28.202Z,26.00
2023-09-06T06:44:16.817Z,24.10
2023-09-06T06:45:32.850Z,24.70
2023-09-06T06:48:20.783Z,24.20
2023-09-06T06:49:36.726Z,23.90
2023-09-06T06:52:24.380Z,24.20
2023-09-06T06:53:41.440Z,23.30
2023-09-06T06:56:28.272Z,24.30
2023-09-06T06:57:46.217Z,23.00
2023-09-06T07:00:36.438Z,24.30
2023-09-06T07:01:50.339Z,22.70
2023-09-06T07:04:39.966Z,24.50
2023-09-06T07:05:54.523Z,22.60
2023-09-06T07:08:43.599Z,24.60
2023-09-06T07:09:58.431Z,22.60
2023-09-06T07:12:47.079Z,24.80
2023-09-06T07:14:07.260Z,22.50
2023-09-06T07:16:50.681Z,25.10
2023-09-06T07:18:11.693Z,22.60
2023-09-06T07:20:54.216Z,25.50
2023-09-06T07:22:16.566Z,22.70
2023-09-06T07:24:58.648Z,25.60
2023-09-06T07:26:20.555Z,22.60
2023-09-06T07:29:02.179Z,26.00
2023-09-06T07:30:24.550Z,22.70
2023-09-06T07:33:06.602Z,26.10
2023-09-06T07:34:28.723Z,22.80
2023-09-06T07:37:11.506Z,26.30
2023-09-06T07:38:33.453Z,22.90
2023-09-06T07:41:15.192Z,26.30
2023-09-06T07:42:41.418Z,23.00
2023-09-06T07:45:19.067Z,26.50
2023-09-06T07:46:50.221Z,23.00
2023-09-06T07:49:22.741Z,26.50
2023-09-06T07:50:56.328Z,23.10
2023-09-06T07:53:29.778Z,26.50
2023-09-06T07:55:00.726Z,23.10
2023-09-06T07:57:33.422Z,26.60
2023-09-06T07:59:04.643Z,23.10
2023-09-06T08:01:37.186Z,26.70
2023-09-06T08:03:08.828Z,23.10
2023-09-06T08:05:41.004Z,27.00
2023-09-06T08:07:12.862Z,23.20
2023-09-06T08:09:44.648Z,27.10
2023-09-06T08:11:19.990Z,23.20
2023-09-06T08:13:48.466Z,27.20
2023-09-06T08:15:24.638Z,23.30
2023-09-06T08:17:52.899Z,27.10
2023-09-06T08:19:28.594Z,23.30
2023-09-06T08:21:56.591Z,27.20
2023-09-06T08:23:32.607Z,23.40
2023-09-06T08:26:01.007Z,27.20
2023-09-06T08:27:36.762Z,23.50
2023-09-06T08:30:06.175Z,27.30
2023-09-06T08:31:40.730Z,23.50
2023-09-06T08:34:13.024Z,27.20
2023-09-06T08:35:44.980Z,23.60
2023-09-06T08:38:17.392Z,27.10
2023-09-06T08:39:50.023Z,23.70
2023-09-06T08:42:24.060Z,27.10
2023-09-06T08:43:54.782Z,23.80
2023-09-06T08:46:34.924Z,27.10
2023-09-06T08:47:59.369Z,23.80
2023-09-06T08:50:39.919Z,27.20
2023-09-06T08:52:04.840Z,23.80
2023-09-06T08:54:50.456Z,27.30
2023-09-06T08:56:08.880Z,23.90
2023-09-06T08:58:54.404Z,27.30
2023-09-06T09:00:15.712Z,24.00
2023-09-06T09:02:59.704Z,27.60
2023-09-06T09:04:19.940Z,24.00
2023-09-06T09:07:04.467Z,27.60
2023-09-06T09:08:24.176Z,24.00
2023-09-06T09:11:15.597Z,27.70
2023-09-06T09:12:33.102Z,24.10
2023-09-06T09:15:23.976Z,27.80
2023-09-06T09:16:37.368Z,24.20
2023-09-06T09:19:28.526Z,27.70
2023-09-06T09:21:12.968Z,24.20
2023-09-06T09:23:33.708Z,27.80
2023-09-06T09:25:26.251Z,24.30
2023-09-06T09:27:38.538Z,27.90
2023-09-06T09:29:30.891Z,24.40
2023-09-06T09:31:42.247Z,28.00
2023-09-06T09:33:37.098Z,24.50
2023-09-06T09:35:46.564Z,28.10
2023-09-06T09:37:51.722Z,24.50
2023-09-06T09:39:50.293Z,28.30
2023-09-06T09:42:01.488Z,24.60
2023-09-06T09:44:15.718Z,28.40
2023-09-06T09:46:06.017Z,24.80
2023-09-06T09:48:22.403Z,28.50
2023-09-06T09:50:12.858Z,24.90
2023-09-06T09:52:28.073Z,28.60
2023-09-06T09:54:19.026Z,25.00
2023-09-06T09:56:32.296Z,28.80
2023-09-06T09:58:23.284Z,25.20
2023-09-06T10:00:40.605Z,29.00
2023-09-06T10:02:38.916Z,25.20
2023-09-06T10:04:46.176Z,29.10
2023-09-06T10:06:45.100Z,25.30
2023-09-06T10:08:51.393Z,29.20
2023-09-06T10:10:51.110Z,25.40
2023-09-06T10:12:55.578Z,29.40
2023-09-06T10:14:56.144Z,25.40
2023-09-06T10:17:00.143Z,29.60
2023-09-06T10:19:00.680Z,25.40
2023-09-06T10:21:06.723Z,29.80
2023-09-06T10:23:08.563Z,25.40
2023-09-06T10:25:11.732Z,30.10
2023-09-06T10:27:14.566Z,25.30
2023-09-06T10:29:21.217Z,30.20
2023-09-06T10:31:18.599Z,25.50
2023-09-06T10:33:40.137Z,30.30
2023-09-06T10:35:32.105Z,25.50
2023-09-06T10:38:04.010Z,30.40
2023-09-06T10:39:48.553Z,25.40
2023-09-06T10:42:10.460Z,30.40
2023-09-06T10:43:58.983Z,25.50
2023-09-06T10:46:15.447Z,30.50
2023-09-06T10:48:21.239Z,25.50
2023-09-06T10:50:21.655Z,30.50
2023-09-06T10:52:40.945Z,25.60
2023-09-06T10:54:36.926Z,30.40
2023-09-06T10:56:57.638Z,25.50
2023-09-06T10:58:40.898Z,30.50
2023-09-06T11:02:44.599Z,30.50
2023-09-06T11:05:55.783Z,25.60
2023-09-06T11:06:56.879Z,30.70
2023-09-06T11:10:08.492Z,25.70
2023-09-06T11:11:07.027Z,30.90
2023-09-06T11:14:14.524Z,25.80
2023-09-06T11:15:11.681Z,30.90
2023-09-06T11:18:19.918Z,26.00
2023-09-06T11:19:15.234Z,30.90
2023-09-06T11:22:25.941Z,26.00
2023-09-06T11:23:19.083Z,31.00
2023-09-06T11:27:26.289Z,31.10
2023-09-06T11:31:34.977Z,31.40
2023-09-06T11:35:44.077Z,31.60
2023-09-06T11:39:48.220Z,32.10
2023-09-06T11:43:57.615Z,32.40
2023-09-06T11:48:07.288Z,32.60
2023-09-06T11:52:14.001Z,32.60
2023-09-06T11:56:23.334Z,32.40
2023-09-06T12:00:40.609Z,32.20
2023-09-06T12:04:54.272Z,32.40
2023-09-06T12:08:57.793Z,32.70
2023-09-06T12:10:22.857Z,27.00
2023-09-06T12:13:01.766Z,32.80
2023-09-06T12:14:28.276Z,26.90
2023-09-06T12:17:06.688Z,33.00
2023-09-06T12:18:34.775Z,27.00
2023-09-06T12:21:10.302Z,32.90
2023-09-06T12:22:40.182Z,27.10
2023-09-06T12:25:16.165Z,32.50
2023-09-06T12:26:44.233Z,27.40
2023-09-06T12:29:19.884Z,32.10
2023-09-06T12:30:48.315Z,27.20
2023-09-06T12:33:24.316Z,32.10
2023-09-06T12:34:54.360Z,27.10
2023-09-06T12:37:27.928Z,32.20
2023-09-06T12:38:58.376Z,27.30
2023-09-06T12:41:31.658Z,32.50
2023-09-06T12:43:04.397Z,27.70
2023-09-06T12:45:35.504Z,32.60
2023-09-06T12:47:08.560Z,27.90
2023-09-06T12:49:39.898Z,32.60
2023-09-06T12:51:13.179Z,27.60
2023-09-06T12:53:43.627Z,32.60
2023-09-06T12:55:17.730Z,27.50
2023-09-06T12:57:49.867Z,32.90
2023-09-06T12:59:21.661Z,27.90
2023-09-06T13:01:53.453Z,33.00
2023-09-06T13:03:25.837Z,28.00
2023-09-06T13:05:57.192Z,32.80
2023-09-06T13:07:31.074Z,27.60
2023-09-06T13:10:00.767Z,32.70
2023-09-06T13:11:35.019Z,27.50
2023-09-06T13:14:04.551Z,32.80
2023-09-06T13:15:38.850Z,27.30
2023-09-06T13:18:08.327Z,32.90
2023-09-06T13:19:46.260Z,27.40
2023-09-06T13:22:14.197Z,33.10
2023-09-06T13:23:50.125Z,27.30
2023-09-06T13:26:19.669Z,33.40
2023-09-06T13:27:54.043Z,27.10
2023-09-06T13:30:23.428Z,33.60
2023-09-06T13:31:58.320Z,27.00
2023-09-06T13:34:28.075Z,33.60
2023-09-06T13:36:02.508Z,26.90
2023-09-06T13:38:32.042Z,33.50
2023-09-06T13:40:12.287Z,26.80
2023-09-06T13:42:36.095Z,33.60
2023-09-06T13:44:16.788Z,26.70
2023-09-06T13:46:39.608Z,33.60
2023-09-06T13:48:21.609Z,26.70
2023-09-06T13:50:43.640Z,33.70
2023-09-06T13:52:25.864Z,26.70
2023-09-06T13:54:47.329Z,33.70
2023-09-06T13:56:32.080Z,26.70
2023-09-06T13:58:51.088Z,33.70
2023-09-06T14:00:36.063Z,26.60
2023-09-06T14:02:54.707Z,33.90
2023-09-06T14:04:40.108Z,26.60
2023-09-06T14:06:58.607Z,34.10
2023-09-06T14:08:46.028Z,26.60
2023-09-06T14:11:02.279Z,34.10
2023-09-06T14:12:50.081Z,26.50
2023-09-06T14:15:07.379Z,34.00
2023-09-06T14:16:56.110Z,26.60
2023-09-06T14:19:10.710Z,34.10
2023-09-06T14:21:00.225Z,26.60
2023-09-06T14:23:14.321Z,33.80
2023-09-06T14:25:04.413Z,26.60
2023-09-06T14:27:18.517Z,33.70
2023-09-06T14:29:08.422Z,26.60
2023-09-06T14:31:22.186Z,33.50
2023-09-06T14:33:14.169Z,26.60
2023-09-06T14:35:25.730Z,33.30
2023-09-06T14:37:18.323Z,26.70
2023-09-06T14:39:31.173Z,33.20
2023-09-06T14:41:26.201Z,26.70
2023-09-06T14:43:36.157Z,33.10
2023-09-06T14:45:30.180Z,26.70
2023-09-06T14:47:40.047Z,33.10
2023-09-06T14:49:34.147Z,26.70
2023-09-06T14:51:43.698Z,32.90
2023-09-06T14:53:38.119Z,26.70
2023-09-06T14:55:47.426Z,32.80
2023-09-06T14:57:42.194Z,26.60
2023-09-06T14:59:51.017Z,32.70
2023-09-06T15:01:46.370Z,26.50
2023-09-06T15:03:54.750Z,32.70
2023-09-06T15:05:50.965Z,26.50
2023-09-06T15:07:58.794Z,32.60
2023-09-06T15:09:56.055Z,26.50
2023-09-06T15:12:03.602Z,32.60
2023-09-06T15:14:02.345Z,26.50
2023-09-06T15:16:07.218Z,32.50
2023-09-06T15:18:06.613Z,26.50
2023-09-06T15:20:12.671Z,32.30
2023-09-06T15:22:11.305Z,26.50
2023-09-06T15:24:16.228Z,32.10
2023-09-06T15:26:18.099Z,26.40
2023-09-06T15:28:20.101Z,32.00
2023-09-06T15:30:22.210Z,26.40
2023-09-06T15:32:23.619Z,31.90
2023-09-06T15:34:28.437Z,26.40
2023-09-06T15:36:31.858Z,31.70
2023-09-06T15:38:34.674Z,26.40
2023-09-06T15:40:36.148Z,31.50
2023-09-06T15:42:38.597Z,26.40
2023-09-06T15:44:40.018Z,31.20
2023-09-06T15:46:43.787Z,26.30
2023-09-06T15:48:43.605Z,31.10
2023-09-06T15:50:48.001Z,26.20
2023-09-06T15:52:51.307Z,30.80
2023-09-06T15:54:52.245Z,26.20
2023-09-06T15:56:56.484Z,30.60
2023-09-06T15:58:56.889Z,26.10
2023-09-06T16:01:00.671Z,30.40
2023-09-06T16:03:01.739Z,26.00
2023-09-06T16:05:07.752Z,30.20
2023-09-06T16:07:09.052Z,26.00
2023-09-06T16:09:15.139Z,30.10
2023-09-06T16:11:14.176Z,25.90
2023-09-06T16:13:19.725Z,30.00
2023-09-06T16:15:19.034Z,25.90
2023-09-06T16:17:23.362Z,29.80
2023-09-06T16:19:23.059Z,25.80
2023-09-06T16:21:27.179Z,29.60
2023-09-06T16:23:27.180Z,25.70
2023-09-06T16:25:30.762Z,29.50
2023-09-06T16:27:33.445Z,25.70
2023-09-06T16:29:34.442Z,29.40
2023-09-06T16:31:38.289Z,25.50
2023-09-06T16:33:38.310Z,29.20
2023-09-06T16:35:42.557Z,25.50
2023-09-06T16:37:49.966Z,29.10
2023-09-06T16:39:46.652Z,25.30
2023-09-06T16:41:54.883Z,28.90
2023-09-06T16:43:50.747Z,25.20
2023-09-06T16:45:59.132Z,28.70
2023-09-06T16:47:54.768Z,25.20
2023-09-06T16:50:02.867Z,28.50
2023-09-06T16:51:58.722Z,25.00
2023-09-06T16:54:09.536Z,28.30
2023-09-06T16:56:02.774Z,25.00
2023-09-06T16:58:13.271Z,28.20
2023-09-06T17:00:07.531Z,24.80
2023-09-06T17:02:16.822Z,28.00
2023-09-06T17:04:12.208Z,24.60
2023-09-06T17:06:21.175Z,27.90
2023-09-06T17:08:19.203Z,24.60
2023-09-06T17:10:24.914Z,27.70
2023-09-06T17:12:24.148Z,24.50
2023-09-06T17:14:28.522Z,27.50
2023-09-06T17:16:29.643Z,24.30
2023-09-06T17:18:32.739Z,27.30
2023-09-06T17:20:33.672Z,24.10
2023-09-06T17:22:36.745Z,27.10
2023-09-06T17:24:39.295Z,24.00
2023-09-06T17:26:42.960Z,27.00
2023-09-06T17:28:48.800Z,23.80
2023-09-06T17:30:48.422Z,26.80
2023-09-06T17:33:13.373Z,23.60
2023-09-06T17:34:52.047Z,26.60
2023-09-06T17:37:17.497Z,23.50
2023-09-06T17:38:55.763Z,26.50
2023-09-06T17:41:24.526Z,23.30
2023-09-06T17:42:59.588Z,26.30
2023-09-06T17:45:29.085Z,23.10
2023-09-06T17:47:03.972Z,26.10
2023-09-06T17:49:35.478Z,22.90
2023-09-06T17:51:13.482Z,25.90
2023-09-06T17:53:41.731Z,22.80
2023-09-06T17:55:21.259Z,25.80
2023-09-06T17:57:48.783Z,22.70
2023-09-06T17:59:25.680Z,25.60
2023-09-06T18:01:56.509Z,22.50
2023-09-06T18:03:29.545Z,25.50
2023-09-06T18:06:02.096Z,22.40
2023-09-06T18:07:36.050Z,25.30
2023-09-06T18:10:08.241Z,22.20
2023-09-06T18:11:40.708Z,25.20
2023-09-06T18:14:12.470Z,22.00
2023-09-06T18:15:46.588Z,25.10
2023-09-06T18:18:20.869Z,21.90
2023-09-06T18:19:50.437Z,25.00
2023-09-06T18:22:25.538Z,21.70
2023-09-06T18:23:54.144Z,24.90
2023-09-06T18:26:29.817Z,21.50
2023-09-06T18:27:57.712Z,24.80
2023-09-06T18:30:34.310Z,21.40
2023-09-06T18:32:01.214Z,24.70
2023-09-06T18:34:38.389Z,21.20
2023-09-06T18:36:10.636Z,24.70
2023-09-06T18:38:42.290Z,21.00
2023-09-06T18:40:16.562Z,24.60
2023-09-06T18:42:48.649Z,20.80
2023-09-06T18:44:20.242Z,24.40
2023-09-06T18:46:52.980Z,20.70
2023-09-06T18:48:24.143Z,24.30
2023-09-06T18:50:56.935Z,20.50
2023-09-06T18:52:28.018Z,24.20
2023-09-06T18:55:00.760Z,20.50
2023-09-06T18:56:36.413Z,24.20
2023-09-06T18:59:04.793Z,20.50
2023-09-06T19:00:43.112Z,24.10
2023-09-06T19:03:13.574Z,20.50
2023-09-06T19:04:46.602Z,24.00
2023-09-06T19:07:17.878Z,20.50
2023-09-06T19:08:50.293Z,23.90
2023-09-06T19:11:23.569Z,20.50
2023-09-06T19:12:55.968Z,23.80
2023-09-06T19:15:30.472Z,20.40
2023-09-06T19:17:00.348Z,23.70
2023-09-06T19:19:40.116Z,20.20
2023-09-06T19:21:04.400Z,23.60
2023-09-06T19:23:44.269Z,20.10
2023-09-06T19:25:11.448Z,23.50
2023-09-06T19:27:49.138Z,20.00
2023-09-06T19:29:15.035Z,23.40
2023-09-06T19:31:54.201Z,19.80
2023-09-06T19:33:19.592Z,23.30
2023-09-06T19:35:58.938Z,19.60
2023-09-06T19:37:24.868Z,23.10
2023-09-06T19:40:05.613Z,19.50
2023-09-06T19:41:28.675Z,22.90
2023-09-06T19:44:10.934Z,19.40
2023-09-06T19:45:35.033Z,22.70
2023-09-06T19:48:18.140Z,19.20
2023-09-06T19:49:38.843Z,22.40
2023-09-06T19:52:22.244Z,19.10
2023-09-06T19:53:42.390Z,22.10
2023-09-06T19:56:26.423Z,18.90
2023-09-06T19:57:46.027Z,21.80
2023-09-06T20:00:34.556Z,18.90
2023-09-06T20:01:49.776Z,21.60
2023-09-06T20:04:38.625Z,19.00
2023-09-06T20:05:54.109Z,21.40
2023-09-06T20:08:44.727Z,19.20
2023-09-06T20:09:57.700Z,21.20
2023-09-06T20:12:48.852Z,19.40
2023-09-06T20:14:01.664Z,21.10
2023-09-06T20:16:52.938Z,19.50
2023-09-06T20:18:05.748Z,20.90
2023-09-06T20:20:56.932Z,19.60
2023-09-06T20:22:09.600Z,20.70
2023-09-06T20:25:01.218Z,19.50
2023-09-06T20:26:13.200Z,20.60
2023-09-06T20:29:10.048Z,19.50
2023-09-06T20:30:16.793Z,20.50
2023-09-06T20:33:14.058Z,19.30
2023-09-06T20:34:20.360Z,20.40
2023-09-06T20:37:18.235Z,19.20
2023-09-06T20:38:24.175Z,20.20
2023-09-06T20:41:23.923Z,19.00
2023-09-06T20:42:28.593Z,20.20
2023-09-06T20:45:28.858Z,19.00
2023-09-06T20:46:33.623Z,20.10
2023-09-06T20:49:33.195Z,19.00
2023-09-06T20:50:37.116Z,20.10
2023-09-06T20:53:38.032Z,18.90
2023-09-06T20:54:40.718Z,20.00
2023-09-06T20:57:46.288Z,18.80
2023-09-06T20:58:44.267Z,20.10
2023-09-06T21:01:52.952Z,18.90
2023-09-06T21:02:48.000Z,20.20
2023-09-06T21:05:58.757Z,18.90
2023-09-06T21:06:51.552Z,20.40
2023-09-06T21:10:04.240Z,18.70
2023-09-06T21:10:55.343Z,20.70
2023-09-06T21:14:09.357Z,18.70
2023-09-06T21:14:58.847Z,20.90
2023-09-06T21:18:14.892Z,18.70
2023-09-06T21:19:02.464Z,21.00
2023-09-06T21:22:19.012Z,18.70
2023-09-06T21:23:06.619Z,21.10
2023-09-06T21:26:25.047Z,18.70
2023-09-06T21:27:10.274Z,21.20
2023-09-06T21:30:29.430Z,18.60
2023-09-06T21:31:14.339Z,21.30
2023-09-06T21:34:33.861Z,18.60
2023-09-06T21:35:18.010Z,21.30
2023-09-06T21:38:37.949Z,18.50
2023-09-06T21:39:21.687Z,21.30
2023-09-06T21:42:44.431Z,18.50
2023-09-06T21:43:26.083Z,21.30
2023-09-06T21:46:48.802Z,18.30
2023-09-06T21:47:29.899Z,21.20
2023-09-06T21:51:07.713Z,18.20
2023-09-06T21:51:33.570Z,21.10
2023-09-06T21:55:12.674Z,18.00
2023-09-06T21:55:37.736Z,21.00
2023-09-06T21:59:16.901Z,17.90
2023-09-06T21:59:41.391Z,20.90
2023-09-06T22:03:21.830Z,17.70
2023-09-06T22:03:47.711Z,20.70
2023-09-06T22:07:44.966Z,17.50
2023-09-06T22:08:09.896Z,20.70
2023-09-06T22:12:07.376Z,17.40
2023-09-06T22:12:31.648Z,20.40
2023-09-06T22:16:11.539Z,17.30
2023-09-06T22:16:36.678Z,20.20
2023-09-06T22:20:19.745Z,17.20
2023-09-06T22:20:42.763Z,20.00
2023-09-06T22:24:34.659Z,17.10
2023-09-06T22:24:46.945Z,19.90
2023-09-06T22:28:38.621Z,17.20
2023-09-06T22:28:50.702Z,19.80
2023-09-06T22:32:43.655Z,17.50
2023-09-06T22:32:54.448Z,19.70
2023-09-06T22:36:48.028Z,17.70
2023-09-06T22:36:57.941Z,19.70
2023-09-06T22:40:52.232Z,17.90
2023-09-06T22:41:01.635Z,19.60
2023-09-06T22:44:56.387Z,18.10
2023-09-06T22:45:06.512Z,19.60
2023-09-06T22:49:02.115Z,18.30
2023-09-06T22:49:10.934Z,19.40
2023-09-06T22:53:06.617Z,18.50
2023-09-06T22:53:14.985Z,19.30
2023-09-06T22:57:10.754Z,18.50
2023-09-06T22:57:19.023Z,19.10
2023-09-06T23:01:14.735Z,18.50
2023-09-06T23:01:22.567Z,18.90
2023-09-06T23:05:19.290Z,18.50
2023-09-06T23:05:26.989Z,18.80
2023-09-06T23:09:25.392Z,18.40
2023-09-06T23:09:31.046Z,18.70
2023-09-06T23:13:29.479Z,18.30
2023-09-06T23:13:35.691Z,18.60
2023-09-06T23:17:38.891Z,18.20
2023-09-06T23:17:41.588Z,18.50
2023-09-06T23:21:44.752Z,18.00
2023-09-06T23:21:45.207Z,18.40
2023-09-06T23:25:52.552Z,17.60
2023-09-06T23:25:54.631Z,18.30
2023-09-06T23:30:00.062Z,17.40
2023-09-06T23:30:03.241Z,18.20
2023-09-06T23:34:15.980Z,18.10
2023-09-06T23:38:20.870Z,18.00
2023-09-06T23:42:24.375Z,17.90
2023-09-06T23:46:28.064Z,17.80
2023-09-06T23:50:33.008Z,17.70
2023-09-06T23:54:46.074Z,17.70
2023-09-06T23:58:50.453Z,17.70
